createdAt,value
2022-11-10T00:01:11.572Z,21.67
2022-11-10T00:03:40.557Z,21.75
2022-11-10T00:06:09.891Z,20.30
2022-11-10T00:08:37.955Z,13.05
2022-11-10T00:11:09.029Z,17.67
2022-11-10T00:13:59.816Z,24.80
2022-11-10T00:16:56.221Z,18.10
2022-11-10T00:19:23.679Z,16.95
2022-11-10T00:21:51.149Z,24.95
2022-11-10T00:24:18.565Z,17.20
2022-11-10T00:26:46.009Z,26.30
2022-11-10T00:29:13.555Z,18.65
2022-11-10T00:31:42.249Z,14.35
2022-11-10T00:34:14.085Z,18.98
2022-11-10T00:36:41.837Z,25.17
2022-11-10T00:39:09.412Z,17.88
2022-11-10T00:41:36.844Z,17.95
2022-11-10T00:44:04.388Z,17.25
2022-11-10T00:46:31.829Z,21.60
2022-11-10T00:48:59.302Z,16.08
2022-11-10T00:51:29.191Z,18.17
2022-11-10T00:53:56.772Z,18.50
2022-11-10T00:56:25.469Z,21.13
2022-11-10T00:58:53.316Z,20.02
2022-11-10T01:01:23.983Z,14.48
2022-11-10T01:03:52.939Z,18.75
2022-11-10T01:06:21.833Z,18.13
2022-11-10T01:08:49.527Z,18.95
2022-11-10T01:11:21.169Z,23.35
2022-11-10T01:13:48.671Z,22.65
2022-11-10T01:16:27.689Z,18.27
2022-11-10T01:19:01.348Z,16.40
2022-11-10T01:21:30.394Z,16.48
2022-11-10T01:23:58.367Z,20.98
2022-11-10T01:26:25.954Z,15.63
2022-11-10T01:28:53.465Z,24.05
2022-11-10T01:31:22.704Z,17.38
2022-11-10T01:33:50.209Z,18.65
2022-11-10T01:36:17.767Z,20.15
2022-11-10T01:38:45.634Z,19.88
2022-11-10T01:41:14.867Z,25.88
2022-11-10T01:43:42.727Z,17.60
2022-11-10T01:46:12.711Z,18.65
2022-11-10T01:48:45.957Z,29.63
2022-11-10T01:51:32.093Z,26.85
2022-11-10T01:54:04.009Z,22.13
2022-11-10T01:56:35.050Z,20.73
2022-11-10T01:59:08.958Z,19.95
2022-11-10T02:01:36.523Z,24.10
2022-11-10T02:04:07.397Z,24.15
2022-11-10T02:06:39.491Z,24.45
2022-11-10T02:09:07.639Z,13.98
2022-11-10T02:11:36.695Z,17.45
2022-11-10T02:14:05.307Z,18.75
2022-11-10T02:16:33.846Z,18.17
2022-11-10T02:19:21.254Z,23.10
2022-11-10T02:21:48.978Z,18.33
2022-11-10T02:24:16.593Z,16.88
2022-11-10T02:26:54.815Z,22.17
2022-11-10T02:29:23.829Z,18.90
2022-11-10T02:31:51.277Z,19.23
2022-11-10T02:34:19.557Z,19.00
2022-11-10T02:36:46.997Z,26.95
2022-11-10T02:39:14.424Z,17.15
2022-11-10T02:41:41.880Z,20.48
2022-11-10T02:44:09.710Z,16.73
2022-11-10T02:46:37.512Z,21.38
2022-11-10T02:49:05.465Z,25.63
2022-11-10T02:51:33.054Z,15.98
2022-11-10T02:54:00.673Z,14.63
2022-11-10T02:56:28.117Z,26.40
2022-11-10T02:58:55.535Z,16.73
2022-11-10T03:01:22.983Z,18.60
2022-11-10T03:03:50.616Z,19.88
2022-11-10T03:06:18.174Z,20.33
2022-11-10T03:08:45.710Z,18.75
2022-11-10T03:11:13.424Z,19.88
2022-11-10T03:14:00.284Z,23.67
2022-11-10T03:16:28.320Z,13.32
2022-11-10T03:18:55.746Z,17.58
2022-11-10T03:21:23.288Z,16.38
2022-11-10T03:23:50.749Z,18.73
2022-11-10T03:26:18.613Z,20.65
2022-11-10T03:28:46.062Z,25.10
2022-11-10T03:31:13.912Z,17.55
2022-11-10T03:33:41.376Z,15.45
2022-11-10T03:36:09.015Z,23.83
2022-11-10T03:38:36.453Z,18.10
2022-11-10T03:41:18.658Z,17.75
2022-11-10T03:43:46.661Z,22.35
2022-11-10T03:46:14.110Z,24.25
2022-11-10T03:48:41.549Z,21.30
2022-11-10T03:51:09.040Z,23.23
2022-11-10T03:53:36.584Z,26.02
2022-11-10T03:56:06.195Z,22.38
2022-11-10T03:58:33.797Z,19.55
2022-11-10T04:01:01.309Z,23.02
2022-11-10T04:03:28.771Z,24.70
2022-11-10T04:06:13.933Z,23.75
2022-11-10T04:08:58.777Z,18.77
2022-11-10T04:11:44.637Z,27.75
2022-11-10T04:14:29.902Z,24.77
2022-11-10T04:16:57.638Z,25.08
2022-11-10T04:19:25.156Z,21.05
2022-11-10T04:21:52.575Z,23.33
2022-11-10T04:24:20.016Z,30.15
2022-11-10T04:26:48.626Z,22.45
2022-11-10T04:29:20.950Z,27.58
2022-11-10T04:34:16.632Z,21.90
2022-11-10T04:36:46.015Z,28.17
2022-11-10T04:39:13.518Z,18.42
2022-11-10T04:41:40.974Z,24.20
2022-11-10T04:44:08.510Z,19.15
2022-11-10T04:46:39.026Z,16.60
2022-11-10T04:49:07.899Z,20.48
2022-11-10T04:51:38.377Z,19.42
2022-11-10T04:54:08.185Z,19.65
2022-11-10T04:56:35.665Z,14.35
2022-11-10T04:59:03.099Z,20.95
2022-11-10T05:01:30.587Z,20.67
2022-11-10T05:03:59.083Z,18.13
2022-11-10T05:06:26.536Z,21.23
2022-11-10T05:08:54.013Z,29.55
2022-11-10T05:11:21.478Z,26.38
2022-11-10T05:13:49.055Z,23.52
2022-11-10T05:16:16.590Z,21.83
2022-11-10T05:18:44.042Z,19.23
2022-11-10T05:21:11.495Z,22.25
2022-11-10T05:23:39.043Z,23.40
2022-11-10T05:26:17.878Z,17.00
2022-11-10T05:28:47.361Z,20.08
2022-11-10T05:31:14.786Z,21.00
2022-11-10T05:33:42.264Z,22.58
2022-11-10T05:36:11.492Z,23.85
2022-11-10T05:38:43.248Z,26.30
2022-11-10T05:41:11.097Z,25.05
2022-11-10T05:43:38.620Z,21.52
2022-11-10T05:46:06.203Z,15.63
2022-11-10T05:48:33.646Z,19.15
2022-11-10T05:51:01.100Z,17.05
2022-11-10T05:53:28.564Z,17.23
2022-11-10T05:55:56.107Z,17.58
2022-11-10T05:58:23.701Z,23.00
2022-11-10T06:00:51.192Z,22.45
2022-11-10T06:03:20.593Z,23.10
2022-11-10T06:05:48.347Z,30.02
2022-11-10T06:08:17.692Z,18.55
2022-11-10T06:10:45.220Z,23.35
2022-11-10T06:13:12.710Z,21.50
2022-11-10T06:15:40.143Z,21.52
2022-11-10T06:18:07.667Z,27.30
2022-11-10T06:20:35.188Z,22.83
2022-11-10T06:23:05.376Z,15.13
2022-11-10T06:25:35.417Z,22.38
2022-11-10T06:28:03.860Z,17.60
2022-11-10T06:30:32.837Z,17.83
2022-11-10T06:33:00.888Z,20.63
2022-11-10T06:35:29.544Z,31.10
2022-11-10T06:38:05.253Z,18.08
2022-11-10T06:40:34.240Z,22.52
2022-11-10T06:43:02.591Z,18.00
2022-11-10T06:45:30.326Z,15.70
2022-11-10T06:48:15.933Z,25.23
2022-11-10T06:50:43.386Z,32.45
2022-11-10T06:53:10.852Z,18.70
2022-11-10T06:55:38.297Z,27.13
2022-11-10T06:58:05.795Z,23.33
2022-11-10T07:00:33.240Z,17.50
2022-11-10T07:03:08.757Z,22.95
2022-11-10T07:05:37.797Z,18.15
2022-11-10T07:08:13.600Z,26.90
2022-11-10T07:10:41.081Z,16.35
2022-11-10T07:13:08.949Z,14.40
2022-11-10T07:15:36.914Z,17.52
2022-11-10T07:18:05.104Z,17.70
2022-11-10T07:20:33.172Z,14.55
2022-11-10T07:23:06.849Z,14.45
2022-11-10T07:25:37.148Z,13.77
2022-11-10T07:28:10.523Z,13.43
2022-11-10T07:30:38.208Z,22.48
2022-11-10T07:33:08.618Z,17.73
2022-11-10T07:35:36.409Z,19.55
2022-11-10T07:38:06.861Z,18.85
2022-11-10T07:40:34.929Z,16.95
2022-11-10T07:43:02.803Z,18.42
2022-11-10T07:45:31.683Z,15.70
2022-11-10T07:48:07.405Z,23.70
2022-11-10T07:50:35.311Z,32.45
2022-11-10T07:53:07.487Z,16.77
2022-11-10T07:55:35.678Z,12.15
2022-11-10T07:58:03.239Z,22.63
2022-11-10T08:00:31.237Z,16.63
2022-11-10T08:03:11.770Z,17.35
2022-11-10T08:05:40.359Z,12.10
2022-11-10T08:08:08.333Z,16.60
2022-11-10T08:10:36.594Z,12.90
2022-11-10T08:13:09.466Z,18.20
2022-11-10T08:15:37.508Z,20.05
2022-11-10T08:18:23.062Z,19.48
2022-11-10T08:20:50.632Z,18.65
2022-11-10T08:23:18.548Z,26.00
2022-11-10T08:25:47.983Z,19.17
2022-11-10T08:28:18.101Z,22.08
2022-11-10T08:30:47.497Z,15.43
2022-11-10T08:33:19.884Z,17.58
2022-11-10T08:35:52.329Z,19.23
2022-11-10T08:38:24.776Z,14.38
2022-11-10T08:40:52.558Z,13.40
2022-11-10T08:43:20.519Z,18.05
2022-11-10T08:45:48.457Z,16.77
2022-11-10T08:48:21.052Z,12.63
2022-11-10T08:50:50.193Z,15.10
2022-11-10T08:53:23.867Z,21.45
2022-11-10T08:55:53.133Z,16.63
2022-11-10T08:58:23.576Z,12.95
2022-11-10T09:00:51.804Z,14.85
2022-11-10T09:03:23.493Z,17.98
2022-11-10T09:05:57.684Z,11.57
2022-11-10T09:08:25.678Z,10.45
2022-11-10T09:10:53.276Z,18.58
2022-11-10T09:13:27.719Z,24.63
2022-11-10T09:16:01.007Z,16.67
2022-11-10T09:18:29.068Z,19.52
2022-11-10T09:20:56.683Z,17.10
2022-11-10T09:23:25.240Z,16.75
2022-11-10T09:25:56.016Z,17.85
2022-11-10T09:28:24.780Z,20.33
2022-11-10T09:30:52.995Z,15.38
2022-11-10T09:33:20.963Z,14.75
2022-11-10T09:35:48.797Z,11.00
2022-11-10T09:38:16.309Z,14.60
2022-11-10T09:41:02.533Z,16.30
2022-11-10T09:43:42.748Z,10.68
2022-11-10T09:46:37.100Z,15.23
2022-11-10T09:49:18.597Z,15.05
2022-11-10T09:51:48.440Z,17.47
2022-11-10T09:54:38.065Z,11.60
2022-11-10T09:57:08.213Z,12.27
2022-11-10T09:59:36.259Z,14.00
2022-11-10T10:02:20.957Z,15.02
2022-11-10T10:05:16.303Z,11.98
2022-11-10T10:08:05.236Z,19.38
2022-11-10T10:10:55.956Z,11.57
2022-11-10T10:13:42.265Z,14.20
2022-11-10T10:16:27.972Z,17.70
2022-11-10T10:19:07.858Z,20.15
2022-11-10T10:22:14.185Z,13.68
2022-11-10T10:24:42.055Z,17.02
2022-11-10T10:27:18.658Z,11.82
2022-11-10T10:29:50.405Z,15.63
2022-11-10T10:32:18.873Z,13.63
2022-11-10T10:34:47.171Z,13.50
2022-11-10T10:37:23.540Z,15.43
2022-11-10T10:39:55.175Z,9.77
2022-11-10T10:42:33.810Z,12.27
2022-11-10T10:45:14.585Z,12.50
2022-11-10T10:47:42.566Z,14.75
2022-11-10T10:50:37.161Z,11.93
2022-11-10T10:53:33.914Z,8.38
2022-11-10T10:56:20.160Z,10.95
2022-11-10T10:58:59.690Z,10.73
2022-11-10T11:01:40.502Z,12.57
2022-11-10T11:04:35.864Z,14.13
2022-11-10T11:07:07.489Z,14.05
2022-11-10T11:09:44.433Z,15.30
2022-11-10T11:12:32.993Z,11.93
2022-11-10T11:15:21.760Z,11.05
2022-11-10T11:18:03.756Z,16.40
2022-11-10T11:20:51.669Z,19.77
2022-11-10T11:23:58.275Z,17.48
2022-11-10T11:26:36.865Z,16.27
2022-11-10T11:29:25.054Z,10.82
2022-11-10T11:32:12.136Z,12.02
2022-11-10T11:34:48.348Z,9.35
2022-11-10T11:37:26.755Z,16.10
2022-11-10T11:40:32.365Z,19.42
2022-11-10T11:43:15.566Z,22.23
2022-11-10T11:45:51.428Z,14.20
2022-11-10T11:48:53.853Z,9.13
2022-11-10T11:51:27.189Z,12.68
2022-11-10T11:54:09.653Z,12.43
2022-11-10T11:56:42.305Z,11.00
2022-11-10T11:59:28.473Z,14.27
2022-11-10T12:02:34.028Z,10.27
2022-11-10T12:05:21.603Z,10.18
2022-11-10T12:08:15.094Z,16.75
2022-11-10T12:10:54.600Z,10.63
2022-11-10T12:13:36.508Z,16.65
2022-11-10T12:16:30.205Z,9.43
2022-11-10T12:19:27.405Z,12.93
2022-11-10T12:22:02.019Z,9.25
2022-11-10T12:24:58.432Z,9.20
2022-11-10T12:27:38.539Z,12.93
2022-11-10T12:30:11.794Z,12.60
2022-11-10T12:33:03.510Z,11.10
2022-11-10T12:35:35.173Z,11.10
2022-11-10T12:38:15.391Z,16.15
2022-11-10T12:41:15.748Z,8.73
2022-11-10T12:43:52.084Z,14.63
2022-11-10T12:46:19.620Z,16.30
2022-11-10T12:49:07.405Z,11.40
2022-11-10T12:52:01.439Z,15.00
2022-11-10T12:54:32.269Z,8.85
2022-11-10T12:57:08.074Z,9.93
2022-11-10T12:59:38.734Z,13.10
2022-11-10T13:02:17.292Z,12.75
2022-11-10T13:04:44.913Z,5.70
2022-11-10T13:07:14.352Z,12.20
2022-11-10T13:09:45.842Z,12.40
2022-11-10T13:12:19.770Z,7.30
2022-11-10T13:14:48.317Z,8.80
2022-11-10T13:17:27.949Z,12.50
2022-11-10T13:20:20.876Z,9.60
2022-11-10T13:22:48.364Z,16.52
2022-11-10T13:25:37.901Z,10.15
2022-11-10T13:28:09.185Z,12.77
2022-11-10T13:30:46.085Z,11.23
2022-11-10T13:33:36.932Z,17.48
2022-11-10T13:36:05.434Z,12.60
2022-11-10T13:38:36.758Z,8.13
2022-11-10T13:41:34.351Z,17.63
2022-11-10T13:44:02.544Z,12.80
2022-11-10T13:46:38.623Z,9.55
2022-11-10T13:49:19.785Z,10.68
2022-11-10T13:52:17.095Z,10.68
2022-11-10T13:54:59.557Z,13.65
2022-11-10T14:00:01.208Z,14.68
2022-11-10T14:02:36.205Z,10.32
2022-11-10T14:05:08.795Z,13.07
2022-11-10T14:07:41.046Z,6.22
2022-11-10T14:12:47.254Z,11.98
2022-11-10T14:15:21.329Z,7.35
2022-11-10T14:17:52.558Z,7.35
2022-11-10T14:20:30.885Z,14.20
2022-11-10T14:22:59.005Z,9.48
2022-11-10T14:25:34.827Z,9.07
2022-11-10T14:28:02.547Z,6.78
2022-11-10T14:30:33.328Z,6.15
2022-11-10T14:33:10.575Z,12.05
2022-11-10T14:35:54.536Z,20.67
2022-11-10T14:38:25.346Z,10.98
2022-11-10T14:40:58.917Z,16.10
2022-11-10T14:43:59.453Z,6.88
2022-11-10T14:46:26.892Z,9.10
2022-11-10T14:48:59.624Z,10.65
2022-11-10T14:51:29.868Z,16.48
2022-11-10T14:53:58.935Z,9.65
2022-11-10T14:56:37.449Z,8.25
2022-11-10T14:59:07.478Z,9.20
2022-11-10T15:01:39.049Z,10.85
2022-11-10T15:04:09.355Z,9.18
2022-11-10T15:06:37.382Z,10.68
2022-11-10T15:09:32.567Z,11.52
2022-11-10T15:12:28.041Z,7.55
2022-11-10T15:15:01.137Z,9.32
2022-11-10T15:17:45.799Z,7.65
2022-11-10T15:20:41.934Z,11.00
2022-11-10T15:23:32.125Z,8.95
2022-11-10T15:26:00.839Z,5.78
2022-11-10T15:28:31.537Z,14.02
2022-11-10T15:31:02.280Z,5.75
2022-11-10T15:33:34.817Z,7.13
2022-11-10T15:36:20.511Z,9.15
2022-11-10T15:39:15.362Z,10.57
2022-11-10T15:41:51.057Z,8.35
2022-11-10T15:44:21.165Z,17.15
2022-11-10T15:46:52.057Z,11.85
2022-11-10T15:49:32.134Z,8.88
2022-11-10T15:52:02.669Z,8.07
2022-11-10T15:54:36.647Z,8.00
2022-11-10T15:57:04.428Z,11.98
2022-11-10T15:59:31.891Z,8.63
2022-11-10T16:02:00.164Z,16.25
2022-11-10T16:04:28.175Z,9.25
2022-11-10T16:06:56.897Z,9.18
2022-11-10T16:09:24.373Z,12.48
2022-11-10T16:11:51.851Z,7.18
2022-11-10T16:14:19.497Z,9.52
2022-11-10T16:16:46.979Z,11.02
2022-11-10T16:19:14.424Z,13.45
2022-11-10T16:21:41.938Z,11.32
2022-11-10T16:24:09.889Z,11.07
2022-11-10T16:26:37.542Z,10.02
2022-11-10T16:29:11.812Z,16.25
2022-11-10T16:31:39.299Z,8.02
2022-11-10T16:34:06.738Z,4.88
2022-11-10T16:36:35.418Z,10.85
2022-11-10T16:39:04.085Z,13.02
2022-11-10T16:41:31.535Z,8.57
2022-11-10T16:43:59.004Z,11.75
2022-11-10T16:46:29.588Z,9.50
2022-11-10T16:49:00.167Z,6.47
2022-11-10T16:51:38.171Z,4.72
2022-11-10T16:54:05.664Z,8.98
2022-11-10T16:56:33.246Z,13.35
2022-11-10T16:59:00.730Z,5.78
2022-11-10T17:01:31.780Z,14.20
2022-11-10T17:04:06.978Z,13.68
2022-11-10T17:06:34.936Z,6.50
2022-11-10T17:09:17.165Z,5.53
2022-11-10T17:11:44.651Z,26.10
2022-11-10T17:14:14.069Z,12.65
2022-11-10T17:16:45.254Z,11.57
2022-11-10T17:19:23.415Z,8.02
2022-11-10T17:21:52.385Z,21.63
2022-11-10T17:24:19.928Z,11.43
2022-11-10T17:26:48.236Z,16.63
2022-11-10T17:29:20.977Z,10.32
2022-11-10T17:31:50.178Z,10.43
2022-11-10T17:34:17.686Z,8.23
2022-11-10T17:36:45.506Z,12.15
2022-11-10T17:39:15.569Z,6.22
2022-11-10T17:41:43.746Z,10.60
2022-11-10T17:44:16.154Z,11.10
2022-11-10T17:46:44.196Z,7.95
2022-11-10T17:49:11.691Z,6.72
2022-11-10T17:51:40.434Z,4.28
2022-11-10T17:54:14.523Z,8.40
2022-11-10T17:56:42.736Z,5.43
2022-11-10T17:59:10.214Z,9.73
2022-11-10T18:01:37.702Z,10.20
2022-11-10T18:04:05.163Z,12.27
2022-11-10T18:06:32.887Z,7.28
2022-11-10T18:09:00.339Z,9.43
2022-11-10T18:11:27.753Z,5.88
2022-11-10T18:13:55.220Z,6.88
2022-11-10T18:16:23.341Z,9.05
2022-11-10T18:18:50.762Z,8.15
2022-11-10T18:21:18.264Z,8.23
2022-11-10T18:23:45.768Z,8.48
2022-11-10T18:26:13.197Z,6.63
2022-11-10T18:28:42.028Z,9.93
2022-11-10T18:31:12.477Z,8.85
2022-11-10T18:33:39.999Z,6.40
2022-11-10T18:36:08.765Z,5.43
2022-11-10T18:38:36.425Z,10.43
2022-11-10T18:41:22.083Z,7.15
2022-11-10T18:43:49.617Z,10.30
2022-11-10T18:46:17.195Z,9.77
2022-11-10T18:48:46.486Z,9.73
2022-11-10T18:51:14.024Z,11.55
2022-11-10T18:53:41.537Z,8.52
2022-11-10T18:56:09.048Z,5.57
2022-11-10T18:58:36.481Z,7.10
2022-11-10T19:01:08.801Z,9.48
2022-11-10T19:03:36.880Z,9.35
2022-11-10T19:06:05.105Z,12.07
2022-11-10T19:08:32.614Z,9.75
2022-11-10T19:11:00.103Z,4.30
2022-11-10T19:13:27.646Z,9.23
2022-11-10T19:16:00.015Z,13.02
2022-11-10T19:20:57.670Z,12.65
2022-11-10T19:23:25.515Z,8.00
2022-11-10T19:26:01.389Z,9.60
2022-11-10T19:28:29.876Z,9.05
2022-11-10T19:31:27.231Z,14.20
2022-11-10T19:33:56.499Z,13.07
2022-11-10T19:36:26.579Z,7.97
2022-11-10T19:38:55.149Z,7.57
2022-11-10T19:41:27.752Z,5.57
2022-11-10T19:43:55.790Z,6.65
2022-11-10T19:46:28.764Z,7.00
2022-11-10T19:48:56.525Z,6.95
2022-11-10T19:51:25.714Z,9.55
2022-11-10T19:54:01.346Z,8.80
2022-11-10T19:56:31.919Z,12.75
2022-11-10T19:59:00.039Z,9.43
2022-11-10T20:01:27.801Z,8.23
2022-11-10T20:03:55.359Z,8.05
2022-11-10T20:06:23.634Z,6.85
2022-11-10T20:08:51.421Z,13.18
2022-11-10T20:11:23.938Z,9.65
2022-11-10T20:13:55.222Z,19.05
2022-11-10T20:16:23.707Z,9.45
2022-11-10T20:18:51.136Z,8.82
2022-11-10T20:21:23.528Z,10.40
2022-11-10T20:23:57.676Z,12.87
2022-11-10T20:26:26.049Z,8.25
2022-11-10T20:28:53.483Z,11.95
2022-11-10T20:31:24.284Z,10.70
2022-11-10T20:33:53.545Z,15.25
2022-11-10T20:36:27.259Z,13.95
2022-11-10T20:38:56.889Z,16.40
2022-11-10T20:41:29.581Z,11.18
2022-11-10T20:43:57.097Z,12.38
2022-11-10T20:49:12.010Z,10.30
2022-11-10T20:51:39.505Z,9.93
2022-11-10T20:54:06.994Z,11.52
2022-11-10T20:56:34.419Z,7.72
2022-11-10T20:59:01.850Z,14.15
2022-11-10T21:01:29.820Z,13.73
2022-11-10T21:03:57.385Z,14.50
2022-11-10T21:06:24.816Z,11.13
2022-11-10T21:08:53.500Z,10.98
2022-11-10T21:11:34.860Z,14.30
2022-11-10T21:14:02.679Z,10.63
2022-11-10T21:16:30.108Z,10.52
2022-11-10T21:18:58.018Z,11.90
2022-11-10T21:21:27.911Z,13.05
2022-11-10T21:23:57.346Z,13.55
2022-11-10T21:26:25.163Z,10.57
2022-11-10T21:28:52.612Z,15.70
2022-11-10T21:31:20.057Z,14.88
2022-11-10T21:33:47.508Z,14.18
2022-11-10T21:36:15.060Z,11.07
2022-11-10T21:38:46.845Z,12.25
2022-11-10T21:41:14.905Z,10.02
2022-11-10T21:43:43.361Z,14.45
2022-11-10T21:46:11.354Z,14.77
2022-11-10T21:48:38.972Z,11.93
2022-11-10T21:51:08.756Z,12.85
2022-11-10T21:53:39.053Z,17.23
2022-11-10T21:56:08.587Z,11.68
2022-11-10T21:58:36.408Z,17.98
2022-11-10T22:01:10.638Z,12.40
2022-11-10T22:03:38.348Z,18.52
2022-11-10T22:06:15.180Z,15.40
2022-11-10T22:08:44.393Z,17.73
2022-11-10T22:11:35.740Z,12.70
2022-11-10T22:14:21.060Z,11.93
2022-11-10T22:17:07.907Z,22.80
2022-11-10T22:19:36.891Z,12.93
2022-11-10T22:22:04.735Z,13.93
2022-11-10T22:24:33.702Z,12.45
2022-11-10T22:27:03.133Z,17.83
2022-11-10T22:29:33.381Z,15.43
2022-11-10T22:32:02.093Z,14.63
2022-11-10T22:34:30.097Z,18.48
2022-11-10T22:36:59.358Z,12.95
2022-11-10T22:39:47.314Z,10.25
2022-11-10T22:42:32.908Z,12.05
2022-11-10T22:45:00.400Z,16.73
2022-11-10T22:47:47.844Z,18.23
2022-11-10T22:50:15.335Z,16.25
2022-11-10T22:52:42.770Z,17.75
2022-11-10T22:55:10.485Z,15.30
2022-11-10T22:57:38.021Z,12.23
2022-11-10T23:00:06.060Z,13.93
2022-11-10T23:02:33.523Z,18.00
2022-11-10T23:05:00.977Z,15.20
2022-11-10T23:07:29.604Z,16.58
2022-11-10T23:09:57.048Z,17.08
2022-11-10T23:12:24.511Z,17.50
2022-11-10T23:14:51.947Z,13.90
2022-11-10T23:17:19.383Z,13.57
2022-11-10T23:19:46.815Z,15.13
2022-11-10T23:22:14.269Z,18.80
2022-11-10T23:24:41.754Z,20.30
2022-11-10T23:27:09.261Z,22.33
2022-11-10T23:29:36.692Z,9.95
2022-11-10T23:32:04.250Z,15.98
2022-11-10T23:34:31.738Z,17.38
2022-11-10T23:36:59.185Z,16.05
2022-11-10T23:39:27.028Z,14.25
2022-11-10T23:41:54.448Z,14.15
2022-11-10T23:44:21.920Z,13.95
2022-11-10T23:46:49.377Z,22.88
2022-11-10T23:49:16.836Z,15.57
2022-11-10T23:51:44.314Z,18.02
2022-11-10T23:54:11.779Z,12.60
2022-11-10T23:56:39.230Z,18.85
2022-11-10T23:59:06.690Z,16.73
